Junction City, Oregon
Current Conditions -  °F | °C
As of 2:54 AM on Friday 31 Oct 2014 (Local Time) from KEUG Reporting Station
Light Rain Light Rain  
Wind Chill: 56°   Ceiling: 4400
Heat Index: 56°   Visibility: 10mi
Dew Point: 54°   Wind: 8mph
Humidity: 93%   Direction: 160°SSE
Pressure: 29.7"   Gusts: NA
Location:  44.22°N, 123.21°W
Report Text: KEUG 310954Z AUTO 16007KT 10SM -RA FEW032 BKN044 OVC075 13/12 A2970 RMK AO2 RAB25 SLP056 P0001 T01330122
Loading
Personal Weather Stations






























Interactive Weather Map
Tropical Storm Tracking
New forecast layout! Learn more

10-Day Weather Forecast

Advertisements
Track Severe Weather on mobile